Jordan Valley, OR

2:10 PM MDT on August 22, 2014 (GMT -0600)
Nampa | Change Station
CLOSE
Current Station
Airport
Location: Nampa,
Elevation: 2536 ft
Nearby Weather Stations

Elev 2536 ft 43.58 °N, 116.52 °W | Updated 15 minutes ago

Clear
Clear
77 °F
Feels Like 77 °F
N
8
Wind Variable Wind from NNW

Today
High -- | Low -- °F
--% Chance of Precip.
Yesterday
High -- | Low -- °F
Precip. -- in
7:05 AM 8:42 PM
Waning Crescent, 7% visible
Pressure 29.89 in
Visibility 10.0 miles
Clouds Clear
Dew Point 36 °F
Humidity 22%
Rainfall 0.00 in
Snow Depth Not available.
UV 9 out of 12
Pollen 5.70 out of 12
Air Quality Not available.
Flu Activity Not available.
METAR KMAN 221955Z AUTO 33007KT 320V020 10SM CLR 25/02 A2989 RMK AO1

More Conditions Fewer Conditions

Pressure 29.89 in
Visibility 10.0 miles
Clouds Clear
Dew Point 36 °F
Humidity 22%
Rainfall 0.00 in
Snow Depth Not available.
UV 9 out of 12
Pollen 5.70 out of 12
Air Quality Not available.
Flu Activity Not available.
METAR KMAN 221955Z AUTO 33007KT 320V020 10SM CLR 25/02 A2989 RMK AO1

More Conditions Fewer Conditions

10-Day Weather Forecast

Almanac

Astronomy

Aug. 22, 2014 Rise Set
Actual Time 7:05 AM MDT 8:42 PM MDT
Civil Twilight 6:36 AM MDT 9:11 PM MDT
Nautical Twilight 6:00 AM MDT 9:47 PM MDT
Astronomical Twilight 5:21 AM MDT 10:26 PM MDT
Moon 4:31 AM MDT 6:54 PM MDT
Length of Visible Light 14h 35m
Length of Day
13h 36m
Tomorrow will be 2m 40s shorter.
Waning Crescent, 7% of the Moon is Illuminated
Today
Waning Crescent
Aug 25
New
Sep 2
First Quarter
Sep 8
Full
Sep 15
Last Quarter

Today's Extremes

State Highs State Lows

Community

WunderPhotos

Upload Photos

1,746,239 photos uploaded!

Nearby

Snow Depth

Station Depth Elevation
Blue Mountain Spring 0 in 5900 ft
Tipton 0 in 5150 ft
Bourne 0 in 5800 ft
Schneider Meadows 0 in 5400 ft
Wolf Creek 0 in 5700 ft

Earthquake Activity

City Distance Mag. Time & Date
No recent earthquake activity has been reported nearby.
Minimum magnitude displayed is 2.5.

Coastal Water Temperatures

Place Temperature
No Stations Reporting

Nearby Weather Stations